KMSS

Massena International-Richards Field Airport

Massena, New York, USA
METAR KMSS 221653Z AUTO 23006KT 10SM SCT070 OVC090 20/12 A3005 RMK AO2 SLP175 T02000117
Observed Flight Rules
May-22 @ 16:53 UTC (60 minutes ago) Visual Flight Rules
Wind Visibility Clouds
230° at 6 knots 10 miles
  • Scattered at 7,000' AGL
  • Overcast at 9,000' AGL
Temperatures Readings
Current 20°C / 68°F
Dewpoint 12°C / 54°F
Humidity 60%
Altimeter 30.05" Hg
Pressure 1017.5 hPa
Elevation 66
METAR KMSS 221653Z AUTO 23006KT 10SM SCT070 OVC090 20/12 A3005 RMK AO2 SLP175 T02000117
Observed Flight Rules
May-22 @ 16:53 UTC
(60 minutes ago)
VFR
Wind Visibility
230° at 6 knots 10 miles
Clouds
  • Scattered at 7,000' AGL
  • Overcast at 9,000' AGL
Temperature Dewpoint
20°C / 68°F 12°C / 54°F
Humidity Altimeter Pressure
60% 30.05" Hg 1017.5 hPa